This is the latest recevied weather packets stored in our database for station/object GW1549. If no packets are shown the sender has not sent any weather packets the latest 10 day(s).
| Time | Temp. | Humidity | Pressure | Rain* | Wind** | Luminosity | Snow |
|---|---|---|---|---|---|---|---|
| 1777832334 | 15.56° C | 38% | 1012.5 hPa | 0 mm | - | - | - |
| 1777830500 | 15.56° C | 40% | 1013.2 hPa | 0 mm | - | - | - |
| 1777824410 | 13.33° C | 45% | 1014.2 hPa | 0 mm | - | - | - |
| 1777823677 | 12.78° C | 44% | 1014.5 hPa | 0 mm | - | - | - |
| 1777821138 | 12.22° C | 48% | 1014.9 hPa | 0 mm | - | - | - |
| 1777820790 | 11.67° C | 49% | 1014.5 hPa | 0 mm | - | - | - |
| 1777820078 | 12.22° C | 49% | 1014.9 hPa | 0 mm | - | - | - |
| 1777818641 | 11.11° C | 54% | 1014.9 hPa | 0 mm | - | - | - |
| 1777816828 | 9.44° C | 63% | 1014.5 hPa | 0 mm | - | - | - |
| 1777808179 | -0.56° C | 99% | 1014.2 hPa | 0 mm | - | - | - |
| 1777807091 | -1.11° C | 99% | 1014.2 hPa | 0 mm | - | - | - |
| 1777804936 | -1.11° C | 99% | 1013.5 hPa | 0 mm | - | - | - |
| 1777802774 | -1.67° C | 99% | 1013.2 hPa | 0 mm | - | - | - |
| 1777798814 | -1.11° C | 98% | 1013.2 hPa | 0 mm | - | - | - |
| 1777797760 | -1.11° C | 98% | 1013.2 hPa | 0 mm | - | - | - |
| 1777797038 | -1.11° C | 98% | 1013.2 hPa | 0 mm | - | - | - |
| 1777796691 | -1.11° C | 98% | 1013.2 hPa | 0 mm | - | - | - |
| 1777791983 | 0° C | 97% | 1012.8 hPa | 0 mm | - | - | - |
| 1777789092 | 0° C | 96% | 1012.8 hPa | 0 mm | - | - | - |
| 1777786957 | 0° C | 95% | 1012.8 hPa | 0 mm | - | - | - |
| 1777786583 | 0° C | 94% | 1013.2 hPa | 0 mm | - | - | - |
| 1777786251 | 0.56° C | 94% | 1013.2 hPa | 0 mm | - | - | - |
| 1777785535 | 0.56° C | 94% | 1013.2 hPa | 0 mm | - | - | - |
| 1777783725 | 0.56° C | 92% | 1013.2 hPa | 0 mm | - | - | - |
| 1777783362 | 0.56° C | 92% | 1013.2 hPa | 0 mm | - | - | - |
* Rain since midnight (hover to see other rain measurements)
** Current wind speed in m/s (hover to see current wind gust speed)